createdAt,value
2018-07-04T00:57:32.568Z,7.50
2018-07-04T01:00:12.310Z,8.83
2018-07-04T01:02:52.117Z,8.83
2018-07-04T01:05:32.012Z,7.60
2018-07-04T01:08:12.145Z,10.77
2018-07-04T01:10:51.728Z,7.80
2018-07-04T01:13:31.862Z,13.73
2018-07-04T01:16:11.389Z,11.80
2018-07-04T01:18:51.364Z,8.03
2018-07-04T01:21:30.848Z,7.53
2018-07-04T01:24:11.346Z,7.77
2018-07-04T01:26:51.008Z,8.63
2018-07-04T01:29:31.260Z,9.40
2018-07-04T01:32:10.908Z,8.17
2018-07-04T01:34:51.237Z,8.07
2018-07-04T01:37:30.781Z,7.70
2018-07-04T01:40:10.936Z,7.93
2018-07-04T01:42:50.544Z,8.00
2018-07-04T01:45:30.540Z,8.20
2018-07-04T01:48:10.002Z,7.53
2018-07-04T01:50:49.816Z,12.33
2018-07-04T01:53:29.344Z,7.97
2018-07-04T01:56:09.321Z,9.47
2018-07-04T01:58:49.158Z,7.93
2018-07-04T02:01:29.530Z,15.20
2018-07-04T02:04:09.107Z,8.90
2018-07-04T02:06:49.217Z,8.30
2018-07-04T02:09:28.824Z,10.63
2018-07-04T02:12:08.693Z,8.83
2018-07-04T02:14:48.511Z,9.47
2018-07-04T02:17:28.111Z,10.90
2018-07-04T02:20:08.092Z,14.03
2018-07-04T02:22:47.672Z,8.00
2018-07-04T02:25:27.940Z,9.37
2018-07-04T02:28:07.561Z,11.20
2018-07-04T02:30:41.604Z,8.87
2018-07-04T02:33:21.313Z,10.13
2018-07-04T02:36:01.918Z,11.53
2018-07-04T02:38:41.410Z,10.53
2018-07-04T02:41:21.389Z,8.40
2018-07-04T02:44:01.158Z,9.23
2018-07-04T02:46:41.517Z,11.47
2018-07-04T02:49:21.825Z,9.27
2018-07-04T02:52:02.154Z,8.97
2018-07-04T02:54:41.884Z,14.60
2018-07-04T02:57:21.816Z,9.87
2018-07-04T03:00:01.759Z,9.83
2018-07-04T03:02:41.267Z,8.67
2018-07-04T03:05:21.350Z,9.73
2018-07-04T03:08:01.132Z,9.37
2018-07-04T03:10:41.153Z,12.27
2018-07-04T03:13:20.849Z,9.30
2018-07-04T03:16:00.949Z,10.47
2018-07-04T03:18:40.558Z,15.93
2018-07-04T03:21:20.641Z,10.57
2018-07-04T03:24:00.189Z,9.50
2018-07-04T03:26:40.372Z,8.70
2018-07-04T03:29:19.973Z,8.93
2018-07-04T03:31:59.934Z,11.43
2018-07-04T03:34:39.639Z,14.90
2018-07-04T03:37:19.827Z,10.73
2018-07-04T03:39:59.309Z,10.90
2018-07-04T03:42:39.117Z,8.47
2018-07-04T03:45:18.727Z,10.03
2018-07-04T03:47:58.617Z,7.93
2018-07-04T03:50:38.162Z,8.80
2018-07-04T03:53:17.992Z,9.87
2018-07-04T03:55:57.469Z,11.60
2018-07-04T03:58:37.277Z,7.70
2018-07-04T04:01:16.861Z,10.20
2018-07-04T04:03:56.672Z,7.10
2018-07-04T04:06:36.532Z,9.00
2018-07-04T04:09:17.101Z,10.13
2018-07-04T04:11:56.641Z,14.27
2018-07-04T04:14:36.524Z,11.07
2018-07-04T04:17:16.258Z,10.00
2018-07-04T04:19:56.750Z,10.07
2018-07-04T04:22:36.328Z,10.57
2018-07-04T04:25:16.258Z,8.47
2018-07-04T04:27:55.846Z,7.17
2018-07-04T04:30:35.784Z,10.77
2018-07-04T04:33:15.560Z,8.60
2018-07-04T04:35:55.759Z,11.87
2018-07-04T04:38:36.657Z,9.23
2018-07-04T04:41:16.906Z,12.60
2018-07-04T04:43:56.915Z,8.40
2018-07-04T04:46:37.011Z,8.60
2018-07-04T04:49:16.740Z,8.23
2018-07-04T04:51:57.121Z,9.37
2018-07-04T04:54:36.661Z,7.33
2018-07-04T04:57:16.763Z,9.23
2018-07-04T04:59:56.973Z,8.50
2018-07-04T05:02:36.775Z,7.27
2018-07-04T05:05:16.676Z,6.17
2018-07-04T05:07:56.213Z,7.97
2018-07-04T05:10:36.764Z,7.70
2018-07-04T05:13:16.510Z,8.97
2018-07-04T05:15:56.738Z,10.20
2018-07-04T05:18:36.316Z,8.53
2018-07-04T05:21:16.462Z,8.10
2018-07-04T05:23:56.106Z,6.03
2018-07-04T05:26:38.911Z,7.37
2018-07-04T05:29:18.744Z,8.03
2018-07-04T05:31:58.698Z,7.93
2018-07-04T05:34:38.380Z,7.80
2018-07-04T05:37:18.605Z,8.03
2018-07-04T05:39:58.316Z,10.93
2018-07-04T05:42:38.388Z,5.57
2018-07-04T05:45:17.963Z,8.07
2018-07-04T05:47:58.093Z,7.10
2018-07-04T05:50:38.054Z,5.10
2018-07-04T05:53:18.671Z,10.70
2018-07-04T05:55:58.796Z,11.17
2018-07-04T05:58:38.716Z,6.57
2018-07-04T06:01:18.467Z,7.40
2018-07-04T06:03:58.766Z,9.30
2018-07-04T06:06:38.662Z,5.10
2018-07-04T06:09:18.578Z,6.83
2018-07-04T06:20:36.214Z,4.40
2018-07-04T06:23:15.777Z,7.10
2018-07-04T06:25:55.805Z,4.60
2018-07-04T06:28:36.351Z,6.27
2018-07-04T06:31:16.940Z,10.13
2018-07-04T06:33:56.593Z,6.97
2018-07-04T06:36:36.748Z,4.73
2018-07-04T06:39:04.709Z,6.00
2018-07-04T06:41:32.240Z,8.17
2018-07-04T06:43:59.629Z,10.43
2018-07-04T06:46:26.923Z,6.00
2018-07-04T06:48:54.542Z,6.30
2018-07-04T06:51:22.165Z,3.83
2018-07-04T06:53:49.494Z,5.00
2018-07-04T06:56:16.823Z,6.20
2018-07-04T06:58:45.490Z,5.60
2018-07-04T07:01:12.985Z,6.80
2018-07-04T07:03:53.213Z,5.70
2018-07-04T07:06:33.427Z,4.90
2018-07-04T07:09:13.784Z,5.87
2018-07-04T07:11:53.635Z,4.07
2018-07-04T07:14:33.669Z,5.27
2018-07-04T07:17:13.282Z,5.70
2018-07-04T07:19:53.653Z,5.70
2018-07-04T07:22:33.314Z,6.83
2018-07-04T07:25:14.170Z,7.03
2018-07-04T07:27:54.137Z,6.43
2018-07-04T07:30:34.747Z,3.87
2018-07-04T07:33:15.348Z,7.13
2018-07-04T07:35:55.545Z,7.73
2018-07-04T07:38:35.544Z,11.10
2018-07-04T07:41:15.140Z,5.37
2018-07-04T07:43:55.467Z,4.63
2018-07-04T07:46:35.554Z,6.33
2018-07-04T07:49:16.354Z,5.63
2018-07-04T07:51:56.595Z,8.30
2018-07-04T07:54:36.385Z,7.60
2018-07-04T07:57:16.376Z,6.93
2018-07-04T07:59:56.191Z,5.33
2018-07-04T08:02:36.910Z,6.43
2018-07-04T08:05:16.458Z,6.93
2018-07-04T08:07:57.422Z,6.30
2018-07-04T08:10:37.436Z,6.90
2018-07-04T08:13:17.721Z,6.10
2018-07-04T08:15:57.624Z,5.90
2018-07-04T08:18:38.439Z,7.53
2018-07-04T08:21:18.081Z,6.57
2018-07-04T08:23:59.249Z,6.33
2018-07-04T08:26:39.288Z,6.47
2018-07-04T08:29:21.025Z,7.57
2018-07-04T08:32:00.653Z,7.07
2018-07-04T08:34:40.606Z,5.33
2018-07-04T08:37:21.237Z,4.67
2018-07-04T08:40:01.436Z,5.35
2018-07-04T08:42:41.125Z,6.90
2018-07-04T08:45:21.209Z,4.53
2018-07-04T08:48:01.468Z,7.30
2018-07-04T08:50:41.662Z,8.18
2018-07-04T08:53:21.166Z,4.35
2018-07-04T08:56:01.881Z,5.83
2018-07-04T08:58:41.530Z,8.30
2018-07-04T09:01:21.473Z,8.25
2018-07-04T09:04:01.800Z,5.47
2018-07-04T09:06:41.582Z,7.50
2018-07-04T09:09:21.814Z,7.60
2018-07-04T09:12:01.614Z,7.15
2018-07-04T09:14:35.844Z,9.35
2018-07-04T09:17:15.969Z,4.42
2018-07-04T09:19:56.686Z,8.00
2018-07-04T09:22:37.769Z,6.03
2018-07-04T09:25:17.189Z,6.53
2018-07-04T09:27:58.106Z,5.85
2018-07-04T09:30:37.700Z,4.92
2018-07-04T09:33:18.159Z,7.55
2018-07-04T09:35:57.715Z,5.40
2018-07-04T09:38:37.761Z,7.80
2018-07-04T09:41:17.345Z,10.35
2018-07-04T09:43:57.859Z,4.85
2018-07-04T09:46:37.841Z,6.87
2018-07-04T09:49:17.978Z,10.32
2018-07-04T09:51:57.617Z,9.83
2018-07-04T09:54:37.556Z,6.17
2018-07-04T09:57:17.270Z,7.27
2018-07-04T09:59:57.758Z,5.97
2018-07-04T10:02:37.456Z,7.30
2018-07-04T10:05:17.559Z,6.93
2018-07-04T10:07:57.866Z,6.33
2018-07-04T10:10:37.497Z,7.43
2018-07-04T10:13:17.408Z,5.92
2018-07-04T10:15:57.343Z,6.65
2018-07-04T10:18:37.698Z,8.70
2018-07-04T10:21:17.227Z,6.58
2018-07-04T10:23:57.123Z,5.17
2018-07-04T10:26:36.572Z,9.83
2018-07-04T10:29:16.644Z,8.30
2018-07-04T10:31:56.141Z,8.15
2018-07-04T10:34:36.688Z,8.58
2018-07-04T10:37:16.658Z,6.78
2018-07-04T10:39:56.612Z,6.53
2018-07-04T10:42:36.560Z,8.78
2018-07-04T10:45:16.160Z,6.33
2018-07-04T10:47:56.948Z,4.87
2018-07-04T10:50:36.447Z,4.97
2018-07-04T10:53:16.740Z,6.43
2018-07-04T10:55:56.349Z,5.83
2018-07-04T10:58:36.964Z,6.47
2018-07-04T11:01:16.755Z,6.27
2018-07-04T11:03:56.695Z,7.10
2018-07-04T11:06:36.324Z,7.37
2018-07-04T11:09:17.103Z,9.50
2018-07-04T11:11:57.322Z,7.23
2018-07-04T11:14:37.569Z,8.83
2018-07-04T11:17:17.341Z,8.90
2018-07-04T11:19:57.520Z,9.17
2018-07-04T11:22:37.199Z,10.13
2018-07-04T11:25:17.464Z,13.23
2018-07-04T11:27:57.292Z,9.67
2018-07-04T11:30:38.383Z,10.37
2018-07-04T11:33:18.025Z,9.77
2018-07-04T11:35:58.393Z,8.00
2018-07-04T11:38:38.053Z,10.07
2018-07-04T11:41:19.742Z,10.97
2018-07-04T11:43:59.879Z,9.87
2018-07-04T11:46:28.409Z,10.63
2018-07-04T11:48:56.169Z,10.30
2018-07-04T11:51:23.480Z,8.33
2018-07-04T11:53:50.811Z,9.33
2018-07-04T11:56:18.498Z,10.10
2018-07-04T11:58:46.965Z,7.77
2018-07-04T12:01:14.871Z,7.37
2018-07-04T12:03:55.036Z,10.20
2018-07-04T12:06:34.635Z,8.93
2018-07-04T12:09:04.202Z,9.20
2018-07-04T12:11:32.075Z,10.00
2018-07-04T12:13:59.581Z,7.97
2018-07-04T12:16:27.032Z,5.60
2018-07-04T12:18:54.855Z,6.37
2018-07-04T12:21:22.162Z,7.23
2018-07-04T12:23:49.539Z,9.93
2018-07-04T12:26:16.832Z,7.03
2018-07-04T12:28:44.135Z,5.87
2018-07-04T12:31:11.442Z,8.27
2018-07-04T12:33:38.757Z,6.30
2018-07-04T12:36:06.061Z,7.50
2018-07-04T12:38:34.273Z,11.33
2018-07-04T12:41:01.746Z,8.00
2018-07-04T12:43:30.172Z,8.57
2018-07-04T12:45:57.452Z,6.33
2018-07-04T12:48:26.408Z,7.57
2018-07-04T12:50:54.280Z,5.37
2018-07-04T12:53:21.569Z,5.57
2018-07-04T12:56:02.113Z,10.37
2018-07-04T12:58:41.937Z,9.83
2018-07-04T13:01:21.711Z,4.30
2018-07-04T13:04:01.513Z,5.63
2018-07-04T13:06:42.327Z,7.43
2018-07-04T13:09:22.907Z,6.80
2018-07-04T13:12:03.374Z,5.27
2018-07-04T13:14:43.261Z,4.47
2018-07-04T13:17:24.173Z,9.07
2018-07-04T13:20:04.158Z,6.47
2018-07-04T13:22:44.886Z,6.53
2018-07-04T13:25:25.266Z,4.23
2018-07-04T13:28:05.011Z,4.53
2018-07-04T13:30:45.570Z,3.70
2018-07-04T13:33:25.510Z,3.00
2018-07-04T13:36:05.197Z,6.13
2018-07-04T13:38:45.944Z,4.43
2018-07-04T13:41:25.409Z,3.23
2018-07-04T13:44:05.291Z,5.43
2018-07-04T13:46:45.143Z,7.77
2018-07-04T13:49:19.566Z,7.40
2018-07-04T13:51:59.654Z,4.87
2018-07-04T13:54:39.295Z,4.90
2018-07-04T13:57:21.283Z,6.20
2018-07-04T14:00:01.136Z,8.47
2018-07-04T14:02:41.325Z,4.10
2018-07-04T14:05:21.156Z,5.37
2018-07-04T14:08:01.522Z,5.37
2018-07-04T14:10:41.669Z,6.23
2018-07-04T14:13:21.541Z,6.17
2018-07-04T14:16:01.232Z,4.90
2018-07-04T14:18:41.437Z,6.20
2018-07-04T14:21:21.164Z,4.07
2018-07-04T14:24:01.295Z,6.70
2018-07-04T14:26:41.121Z,12.80
2018-07-04T14:29:21.706Z,8.40
2018-07-04T14:32:01.659Z,9.67
2018-07-04T14:34:42.395Z,6.30
2018-07-04T14:37:21.994Z,9.00
2018-07-04T14:40:02.830Z,5.47
2018-07-04T14:42:42.752Z,8.70
2018-07-04T14:45:23.945Z,6.07
2018-07-04T14:48:04.899Z,6.93
2018-07-04T14:50:38.845Z,6.43
2018-07-04T14:53:19.496Z,10.73
2018-07-04T14:55:59.301Z,6.27
2018-07-04T14:58:40.321Z,6.07
2018-07-04T15:01:20.487Z,6.83
2018-07-04T15:04:00.142Z,5.97
2018-07-04T15:06:42.033Z,4.60
2018-07-04T15:09:22.888Z,7.50
2018-07-04T15:12:02.749Z,7.00
2018-07-04T15:14:42.436Z,5.50
2018-07-04T15:17:23.158Z,4.53
2018-07-04T15:20:04.234Z,5.97
2018-07-04T15:22:43.870Z,6.70
2018-07-04T15:25:23.823Z,6.40
2018-07-04T15:28:03.624Z,3.40
2018-07-04T15:30:44.428Z,6.00
2018-07-04T15:33:24.341Z,5.83
2018-07-04T15:36:05.575Z,5.27
2018-07-04T15:38:45.565Z,5.47
2018-07-04T15:41:26.384Z,3.47
2018-07-04T15:44:08.584Z,5.50
2018-07-04T15:46:50.556Z,2.90
2018-07-04T15:49:30.389Z,6.17
2018-07-04T15:55:03.034Z,7.93
2018-07-04T15:57:46.412Z,2.97
2018-07-04T16:00:27.449Z,4.53
2018-07-04T16:03:09.053Z,2.77
2018-07-04T16:05:50.154Z,4.67
2018-07-04T16:08:31.063Z,4.97
2018-07-04T16:11:13.214Z,3.97
2018-07-04T16:13:55.116Z,3.07
2018-07-04T16:16:35.538Z,5.33
2018-07-04T16:19:15.384Z,2.40
2018-07-04T16:21:55.537Z,3.97
2018-07-04T16:24:35.438Z,3.50
2018-07-04T16:27:16.365Z,2.03
2018-07-04T16:29:55.989Z,1.63
2018-07-04T16:32:36.071Z,2.03
2018-07-04T16:35:15.928Z,2.20
2018-07-04T16:37:57.266Z,5.33
2018-07-04T16:40:36.955Z,3.87
2018-07-04T16:43:17.551Z,3.53
2018-07-04T16:45:57.385Z,3.20
2018-07-04T16:48:38.401Z,2.97
2018-07-04T16:51:18.193Z,4.67
2018-07-04T16:53:58.106Z,4.33
2018-07-04T16:56:38.186Z,2.43
2018-07-04T16:59:19.025Z,4.40
2018-07-04T17:01:58.888Z,3.30
2018-07-04T17:04:39.654Z,3.03
2018-07-04T17:07:19.610Z,2.03
2018-07-04T17:09:59.829Z,3.30
2018-07-04T17:12:40.358Z,3.07
2018-07-04T17:15:20.769Z,3.37
2018-07-04T17:18:01.043Z,2.83
2018-07-04T17:20:46.094Z,4.67
2018-07-04T17:23:25.739Z,3.07
2018-07-04T17:26:05.825Z,3.87
2018-07-04T17:28:45.512Z,4.33
2018-07-04T17:31:25.896Z,2.20
2018-07-04T17:34:05.720Z,4.23
2018-07-04T17:36:46.419Z,2.80
2018-07-04T17:39:26.167Z,6.70
2018-07-04T17:42:06.924Z,5.27
2018-07-04T17:44:46.512Z,3.30
2018-07-04T17:47:27.282Z,3.73
2018-07-04T17:50:07.077Z,4.07
2018-07-04T17:52:48.073Z,5.40
2018-07-04T17:55:28.085Z,3.40
2018-07-04T17:58:08.974Z,5.20
2018-07-04T18:00:48.916Z,4.67
2018-07-04T18:03:29.541Z,3.53
2018-07-04T18:06:10.297Z,3.77
2018-07-04T18:08:50.994Z,2.77
2018-07-04T18:11:31.291Z,6.13
2018-07-04T18:14:11.051Z,4.83
2018-07-04T18:16:51.533Z,4.87
2018-07-04T18:19:31.841Z,3.50
2018-07-04T18:22:11.933Z,2.80
2018-07-04T18:24:51.672Z,4.27
2018-07-04T18:27:32.074Z,3.33
2018-07-04T18:30:12.013Z,5.00
2018-07-04T18:32:52.126Z,2.97
2018-07-04T18:35:32.163Z,3.67
2018-07-04T18:38:12.737Z,3.13
2018-07-04T18:40:52.532Z,7.43
2018-07-04T18:43:32.543Z,4.80
2018-07-04T18:46:12.146Z,3.83
2018-07-04T18:48:53.010Z,3.20
2018-07-04T18:51:32.855Z,2.80
2018-07-04T18:54:13.402Z,5.40
2018-07-04T18:56:53.272Z,4.97
2018-07-04T18:59:33.363Z,5.00
2018-07-04T19:02:13.191Z,3.13
2018-07-04T19:04:53.882Z,4.30
2018-07-04T19:07:33.994Z,4.53
2018-07-04T19:10:15.031Z,8.53
2018-07-04T19:12:54.817Z,9.07
2018-07-04T19:15:35.418Z,4.30
2018-07-04T19:18:15.136Z,3.83
2018-07-04T19:20:55.852Z,5.47
2018-07-04T19:23:35.919Z,5.80
2018-07-04T19:26:16.229Z,4.83
2018-07-04T19:28:56.239Z,5.67
2018-07-04T19:31:36.158Z,7.43
2018-07-04T19:34:15.845Z,6.30
2018-07-04T19:37:01.284Z,6.90
2018-07-04T19:39:41.644Z,6.33
2018-07-04T19:42:22.438Z,10.27
2018-07-04T19:45:02.024Z,31.00
2018-07-04T19:47:42.363Z,17.67
2018-07-04T19:50:22.125Z,16.70
2018-07-04T19:53:02.362Z,17.30
2018-07-04T19:55:42.774Z,7.13
2018-07-04T19:58:22.405Z,4.63
2018-07-04T20:01:02.664Z,5.40
2018-07-04T20:03:42.281Z,5.53
2018-07-04T20:06:16.561Z,6.20
2018-07-04T20:08:56.650Z,6.93
2018-07-04T20:11:37.226Z,6.43
2018-07-04T20:14:17.319Z,7.87
2018-07-04T20:16:57.025Z,6.13
2018-07-04T20:19:37.809Z,5.57
2018-07-04T20:22:17.633Z,6.30
2018-07-04T20:24:57.798Z,6.47
2018-07-04T20:27:37.966Z,4.63
2018-07-04T20:30:17.926Z,5.30
2018-07-04T20:32:57.542Z,5.00
2018-07-04T20:35:38.032Z,7.07
2018-07-04T20:38:17.823Z,5.23
2018-07-04T20:40:57.918Z,7.63
2018-07-04T20:43:37.788Z,8.60
2018-07-04T20:46:18.637Z,6.33
2018-07-04T20:48:58.401Z,5.97
2018-07-04T20:51:38.962Z,8.13
2018-07-04T20:54:19.072Z,6.77
2018-07-04T20:56:58.848Z,6.27
2018-07-04T20:59:39.242Z,7.67
2018-07-04T21:02:19.023Z,5.80
2018-07-04T21:04:58.894Z,7.70
2018-07-04T21:07:38.564Z,6.50
2018-07-04T21:10:18.589Z,9.70
2018-07-04T21:12:58.542Z,8.20
2018-07-04T21:15:40.264Z,6.87
2018-07-04T21:18:19.935Z,8.33
2018-07-04T21:21:00.751Z,6.57
2018-07-04T21:23:40.415Z,8.07
2018-07-04T21:26:20.432Z,5.93
2018-07-04T21:29:00.574Z,7.00
2018-07-04T21:31:41.557Z,9.50
2018-07-04T21:34:21.162Z,6.40
2018-07-04T21:37:01.862Z,7.10
2018-07-04T21:39:41.550Z,8.63
2018-07-04T21:42:22.677Z,5.23
2018-07-04T21:45:03.033Z,6.00
2018-07-04T21:47:43.904Z,5.83
2018-07-04T21:50:18.707Z,6.07
2018-07-04T21:52:58.332Z,6.87
